Morell, Canada
Current Conditions -  °F | °C
As of 10:00 AM on Friday 24 Oct 2014 (Local Time) from CYYG Reporting Station
Moderate Rain Moderate Rain  
Wind Chill: 52°   Ceiling: 700
Heat Index: 52°   Visibility: 5mi
Dew Point: 50°   Wind: 12mph
Humidity: 94%   Direction: 60°ENE
Pressure: 29.64"   Gusts: 20mph
Location:  46.42°N, 62.7°W
Report Text: CYYG 241300Z 06010G17KT 5SM RA BR BKN007 OVC019 11/10 A2964 RMK SF7SC1 SLP038
Loading
Personal Weather Stations






























Interactive Weather Map
Tropical Storm Tracking
New forecast layout! Learn more

10-Day Weather Forecast

Advertisements
Track Severe Weather on mobile